Reno, NV (89501)

11:07 AM PDT on May 04, 2015 (GMT -0700)
UNR Campus, LMR Roof | | Change Station
CLOSE
Current Station
Personal Weather Station
Location: Reno, NV
Elevation: 4570 ft
Nearby Weather Stations

Elev 4570 ft 39.54 °N, 119.81 °W | Updated 1 minute ago

Mostly Cloudy
Mostly Cloudy
72.3 °F
Feels Like 75 °F
N
2.7
Wind Variable Wind from NE
Gusts 11.2 mph

Today
High -- | Low -- °F
--% Chance of Precip.
Yesterday
High -- | Low -- °F
Precip. -- in
5:56 AM 7:55 PM
Full, 100% visible
Pressure 29.83 in
Visibility 10.0 miles
Clouds Few 9000 ft
Mostly Cloudy 25000 ft
Heat Index 75 °F
Dew Point 26 °F
Humidity 18%
Rainfall 0.00 in
Snow Depth Not available.
UV 5 out of 12
Pollen 8.20 out of 12
Air Quality Not available.
Flu Activity Sporadic
METAR KRNO 041755Z VRB03KT 10SM FEW090 BKN250 21/M04 A2996 RMK AO2 SLP099 TCU DSNT SE T02061044 10211 20094 58007

More Conditions Fewer Conditions

Pressure 29.83 in
Visibility 10.0 miles
Clouds Few 9000 ft
Mostly Cloudy 25000 ft
Heat Index 75 °F
Dew Point 26 °F
Humidity 18%
Rainfall 0.00 in
Snow Depth Not available.
UV 5 out of 12
Pollen 8.20 out of 12
Air Quality Not available.
Flu Activity Sporadic
METAR KRNO 041755Z VRB03KT 10SM FEW090 BKN250 21/M04 A2996 RMK AO2 SLP099 TCU DSNT SE T02061044 10211 20094 58007

More Conditions Fewer Conditions

Nepal has a long way to go to dig out and rebuild from a devastating earthquake. We have teamed up with several charities and organizations to make contributing to the relief effort as easy as possible.
How you can help: Portlight Strategies | Red Cross

10-Day Weather Forecast

Almanac

Astronomy

May. 04, 2015 Rise Set
Actual Time
Civil Twilight
Nautical Twilight
Astronomical Twilight
Moon
Length of Visible Light
Length of Day
Tomorrow will be .
, % of the Moon is Illuminated

Today's Extremes

State Highs State Lows

Community

WunderPhotos

Upload Photos

1,818,661 photos uploaded!

WunderBlogs® & News

Nearby

Air Quality

  Air Quality AQ Index Pollutant
Not available.

Snow Depth

Station Depth Elevation

Earthquake Activity

City Distance Mag. Time & Date
Minimum magnitude displayed is 2.5.

Coastal Water Temperatures

Place Temperature

Stations

Nearby Weather Stations

Station Location Temp. Windchill Dew Point Humidity Wind Precip. Elev Updated Type